Webcams.travel - The Webcam Community - Home
Live   Popular   Featured   New   Map
Create Account Sign in voidvoid

Add a webcamAdd a webcam

Mogadouro › South-West: Airport Webcam

> > > (correct)

flyweather.net
Member since: October 2016
More webcams:

Travel webcam Bragança › North-West: Airport
Bragança
Travel webcam Benavente › North-East: AIrport, METAR: BENAV 180005Z 36004KT 17/14 Q1015
Benavente
Travel webcam Ponte de Sôr › North-East
Ponte de Sôr
Travel webcam Palmeira › North-East: Braga Airfield
Palmeira
Travel webcam Maia Airport › North-West
Maia Airport
Switch
Daylight
Share

<> Embed
Save
Please sign in to use this feature

About

Views: 1,595
Favorites: 0
Elevation: 735 m.a.s.l.
Position: Map
more ...

Feedback

Edit this webcam
Lookr Look back: 30 days
View all Lookouts in: Bragança - Portugal

About this webcam

This webcam is currently assigned to flyweather.net. It was originally added on September 17, 2018 and has been viewed 1,595 times since then. The current picture above was taken 13 minutes ago, thereby the webcam seems to be currently active. So far, it was added to their personal favorites on webcams.travel by 0 people.

Weather Mogadouro

Tuesday
Weather
5°C / 14°C
41°F / 57°F
Wednesday
Weather
7°C / 10°C
45°F / 50°F
Thursday
Weather
8°C / 14°C
46°F / 57°F
powered by wetter.com

Comments

No comments on this webcam
Webcam search